createdAt,value
2022-10-10T00:00:21.160Z,0.00
2022-10-10T00:01:21.184Z,0.00
2022-10-10T00:02:21.161Z,0.00
2022-10-10T00:03:21.158Z,0.00
2022-10-10T00:04:21.123Z,0.00
2022-10-10T00:05:21.108Z,0.00
2022-10-10T00:06:21.114Z,0.00
2022-10-10T00:07:21.099Z,0.00
2022-10-10T00:08:21.084Z,0.00
2022-10-10T00:09:21.068Z,0.00
2022-10-10T00:10:21.050Z,0.00
2022-10-10T00:11:21.083Z,0.00
2022-10-10T00:12:21.020Z,0.00
2022-10-10T00:13:21.028Z,0.00
2022-10-10T00:14:21.011Z,0.00
2022-10-10T00:15:21.010Z,0.00
2022-10-10T00:16:21.016Z,0.00
2022-10-10T00:17:21.036Z,0.00
2022-10-10T00:18:20.966Z,0.00
2022-10-10T00:19:20.972Z,0.00
2022-10-10T00:20:20.942Z,0.00
2022-10-10T00:21:20.939Z,0.00
2022-10-10T00:22:20.948Z,0.00
2022-10-10T00:23:20.942Z,0.00
2022-10-10T00:24:20.907Z,0.00
2022-10-10T00:25:20.894Z,0.00
2022-10-10T00:26:20.897Z,0.00
2022-10-10T00:27:20.910Z,0.00
2022-10-10T00:28:20.893Z,0.00
2022-10-10T00:29:20.852Z,0.00
2022-10-10T00:30:20.846Z,0.00
2022-10-10T00:31:20.841Z,0.00
2022-10-10T00:32:20.818Z,0.00
2022-10-10T00:33:20.839Z,0.00
2022-10-10T00:34:20.793Z,0.00
2022-10-10T00:35:20.802Z,0.00
2022-10-10T00:36:20.771Z,0.00
2022-10-10T00:37:20.791Z,0.00
2022-10-10T00:38:20.774Z,0.00
2022-10-10T00:39:20.753Z,0.00
2022-10-10T00:40:20.739Z,0.00
2022-10-10T00:41:20.733Z,0.00
2022-10-10T00:42:20.711Z,0.00
2022-10-10T00:43:20.739Z,0.00
2022-10-10T00:44:20.693Z,0.00
2022-10-10T00:45:20.680Z,0.00
2022-10-10T00:46:20.673Z,0.00
2022-10-10T00:47:20.673Z,0.00
2022-10-10T00:48:20.649Z,0.00
2022-10-10T00:49:20.655Z,0.00
2022-10-10T00:50:20.627Z,0.00
2022-10-10T00:51:20.653Z,0.00
2022-10-10T00:52:20.599Z,0.00
2022-10-10T00:53:20.616Z,0.00
2022-10-10T00:54:20.590Z,0.00
2022-10-10T00:55:20.586Z,0.00
2022-10-10T00:56:20.563Z,0.00
2022-10-10T00:57:20.555Z,0.00
2022-10-10T00:58:20.564Z,0.00
2022-10-10T00:59:20.545Z,0.00
2022-10-10T01:00:20.520Z,0.00
2022-10-10T01:01:20.547Z,0.00
2022-10-10T01:02:20.505Z,0.00
2022-10-10T01:03:20.529Z,0.00
2022-10-10T01:04:20.478Z,0.00
2022-10-10T01:05:20.475Z,0.00
2022-10-10T01:06:20.461Z,0.00
2022-10-10T01:07:20.464Z,0.00
2022-10-10T01:08:20.438Z,0.00
2022-10-10T01:09:20.449Z,0.00
2022-10-10T01:10:20.429Z,0.00
2022-10-10T01:11:20.415Z,0.00
2022-10-10T01:12:20.389Z,0.00
2022-10-10T01:13:20.394Z,0.00
2022-10-10T01:14:20.413Z,0.00
2022-10-10T01:15:20.378Z,0.00
2022-10-10T01:16:20.531Z,0.00
2022-10-10T01:17:20.346Z,0.00
2022-10-10T01:18:20.353Z,0.00
2022-10-10T01:19:20.335Z,0.00
2022-10-10T01:20:20.319Z,0.00
2022-10-10T01:21:20.296Z,0.00
2022-10-10T01:22:20.286Z,0.00
2022-10-10T01:23:20.284Z,0.00
2022-10-10T01:24:20.282Z,0.00
2022-10-10T01:25:20.268Z,0.00
2022-10-10T01:26:20.243Z,0.00
2022-10-10T01:27:20.237Z,0.00
2022-10-10T01:28:20.251Z,0.00
2022-10-10T01:29:20.238Z,0.00
2022-10-10T01:30:20.205Z,0.00
2022-10-10T01:31:20.204Z,0.00
2022-10-10T01:32:20.176Z,0.00
2022-10-10T01:33:20.180Z,0.00
2022-10-10T01:34:20.185Z,0.00
2022-10-10T01:35:20.155Z,0.00
2022-10-10T01:36:20.129Z,0.00
2022-10-10T01:37:20.130Z,0.00
2022-10-10T01:38:20.146Z,0.00
2022-10-10T01:39:20.117Z,0.00
2022-10-10T01:40:20.122Z,0.00
2022-10-10T01:41:20.093Z,0.00
2022-10-10T01:42:20.072Z,0.00
2022-10-10T01:43:20.096Z,0.00
2022-10-10T01:44:20.703Z,0.00
2022-10-10T01:45:20.052Z,0.00
2022-10-10T01:46:20.031Z,0.00
2022-10-10T01:47:20.025Z,0.00
2022-10-10T01:48:20.030Z,0.00
2022-10-10T01:49:20.020Z,0.00
2022-10-10T01:50:19.991Z,0.00
2022-10-10T01:51:20.005Z,0.00
2022-10-10T01:52:19.959Z,0.00
2022-10-10T01:53:19.955Z,0.00
2022-10-10T01:54:19.973Z,0.00
2022-10-10T01:55:19.949Z,0.00
2022-10-10T01:56:19.922Z,0.00
2022-10-10T01:57:19.914Z,0.00
2022-10-10T01:58:19.912Z,0.00
2022-10-10T01:59:19.891Z,0.00
2022-10-10T02:00:19.923Z,0.00
2022-10-10T02:01:19.914Z,0.00
2022-10-10T02:02:19.862Z,0.00
2022-10-10T02:03:19.847Z,0.00
2022-10-10T02:04:19.856Z,0.00
2022-10-10T02:05:19.826Z,0.00
2022-10-10T02:06:19.826Z,0.00
2022-10-10T02:07:19.832Z,0.00
2022-10-10T02:08:19.805Z,0.00
2022-10-10T02:09:19.809Z,0.00
2022-10-10T02:10:19.783Z,0.00
2022-10-10T02:11:19.759Z,0.00
2022-10-10T02:12:19.758Z,0.00
2022-10-10T02:13:19.758Z,0.00
2022-10-10T02:14:19.770Z,0.00
2022-10-10T02:15:19.722Z,0.00
2022-10-10T02:16:19.719Z,0.00
2022-10-10T02:17:19.704Z,0.00
2022-10-10T02:18:19.694Z,0.00
2022-10-10T02:19:19.681Z,0.00
2022-10-10T02:20:19.689Z,0.00
2022-10-10T02:21:19.649Z,0.00
2022-10-10T02:22:19.650Z,0.00
2022-10-10T02:23:19.631Z,0.00
2022-10-10T02:24:19.647Z,0.00
2022-10-10T02:25:19.619Z,0.00
2022-10-10T02:26:19.598Z,0.00
2022-10-10T02:27:19.592Z,0.00
2022-10-10T02:28:19.637Z,0.00
2022-10-10T02:29:19.586Z,0.00
2022-10-10T02:30:19.581Z,0.00
2022-10-10T02:31:19.547Z,0.00
2022-10-10T02:32:19.550Z,0.00
2022-10-10T02:33:19.532Z,0.00
2022-10-10T02:34:19.531Z,0.00
2022-10-10T02:35:19.515Z,0.00
2022-10-10T02:36:19.498Z,0.00
2022-10-10T02:37:19.482Z,0.00
2022-10-10T02:38:19.479Z,0.00
2022-10-10T02:39:19.470Z,0.00
2022-10-10T02:40:19.463Z,0.00
2022-10-10T02:41:19.440Z,0.00
2022-10-10T02:42:19.442Z,0.00
2022-10-10T02:43:19.424Z,0.00
2022-10-10T02:44:19.417Z,0.00
2022-10-10T02:45:19.405Z,0.00
2022-10-10T02:46:19.393Z,0.00
2022-10-10T02:47:19.384Z,0.00
2022-10-10T02:48:19.378Z,0.00
2022-10-10T02:49:19.362Z,0.00
2022-10-10T02:50:19.368Z,0.00
2022-10-10T02:51:19.336Z,0.00
2022-10-10T02:52:19.332Z,0.00
2022-10-10T02:53:19.421Z,0.00
2022-10-10T02:54:19.312Z,0.00
2022-10-10T02:55:19.326Z,0.00
2022-10-10T02:56:19.291Z,0.00
2022-10-10T02:57:19.271Z,0.00
2022-10-10T02:58:19.271Z,0.00
2022-10-10T02:59:19.246Z,0.00
2022-10-10T03:00:19.244Z,0.00
2022-10-10T03:01:19.296Z,0.00
2022-10-10T03:02:19.222Z,0.00
2022-10-10T03:03:19.216Z,0.00
2022-10-10T03:04:19.224Z,0.00
2022-10-10T03:05:19.193Z,0.00
2022-10-10T03:06:19.211Z,0.00
2022-10-10T03:07:19.161Z,0.00
2022-10-10T03:08:19.168Z,0.00
2022-10-10T03:09:19.166Z,0.00
2022-10-10T03:10:19.132Z,0.00
2022-10-10T03:11:19.138Z,0.00
2022-10-10T03:12:19.130Z,0.00
2022-10-10T03:13:19.137Z,0.00
2022-10-10T03:14:19.101Z,0.00
2022-10-10T03:15:19.073Z,0.00
2022-10-10T03:16:19.094Z,0.00
2022-10-10T03:17:19.055Z,0.00
2022-10-10T03:18:19.044Z,0.00
2022-10-10T03:19:19.037Z,0.00
2022-10-10T03:20:19.043Z,0.00
2022-10-10T03:21:19.041Z,0.00
2022-10-10T03:22:19.012Z,0.00
2022-10-10T03:23:18.981Z,0.00
2022-10-10T03:24:19.005Z,0.00
2022-10-10T03:25:18.981Z,0.00
2022-10-10T03:26:18.972Z,0.00
2022-10-10T03:27:18.948Z,0.00
2022-10-10T03:28:18.999Z,0.00
2022-10-10T03:29:18.924Z,0.00
2022-10-10T03:30:18.935Z,0.00
2022-10-10T03:31:18.909Z,0.00
2022-10-10T03:32:18.910Z,0.00
2022-10-10T03:33:18.885Z,0.00
2022-10-10T03:34:18.879Z,0.00
2022-10-10T03:35:18.862Z,0.00
2022-10-10T03:36:18.887Z,0.00
2022-10-10T03:37:18.847Z,0.00
2022-10-10T03:38:18.841Z,0.00
2022-10-10T03:39:18.816Z,0.00
2022-10-10T03:40:18.823Z,0.00
2022-10-10T03:41:18.821Z,0.00
2022-10-10T03:42:18.810Z,0.00
2022-10-10T03:43:18.786Z,0.00
2022-10-10T03:44:20.274Z,0.00
2022-10-10T03:45:18.757Z,0.00
2022-10-10T03:46:18.772Z,0.00
2022-10-10T03:47:18.754Z,0.00
2022-10-10T03:48:18.744Z,0.00
2022-10-10T03:49:18.726Z,0.00
2022-10-10T03:50:18.709Z,0.00
2022-10-10T03:51:18.699Z,0.00
2022-10-10T03:52:18.700Z,0.00
2022-10-10T03:53:18.694Z,0.00
2022-10-10T03:54:18.671Z,0.00
2022-10-10T03:55:18.644Z,0.00
2022-10-10T03:56:18.654Z,0.00
2022-10-10T03:57:18.670Z,0.00
2022-10-10T03:58:23.548Z,0.00
2022-10-10T03:59:18.618Z,0.00
2022-10-10T04:00:18.635Z,0.00
2022-10-10T04:01:18.627Z,0.00
2022-10-10T04:02:18.590Z,0.00
2022-10-10T04:03:18.581Z,0.00
2022-10-10T04:04:18.567Z,0.00
2022-10-10T04:05:18.550Z,0.00
2022-10-10T04:06:18.548Z,0.00
2022-10-10T04:07:18.535Z,0.00
2022-10-10T04:08:18.636Z,0.00
2022-10-10T04:09:18.506Z,0.00
2022-10-10T04:10:18.494Z,0.00
2022-10-10T04:11:18.484Z,0.00
2022-10-10T04:12:18.498Z,0.00
2022-10-10T04:13:18.474Z,0.00
2022-10-10T04:14:18.512Z,0.00
2022-10-10T04:15:18.430Z,0.00
2022-10-10T04:16:18.440Z,0.00
2022-10-10T04:17:18.421Z,0.00
2022-10-10T04:18:18.460Z,0.00
2022-10-10T04:19:18.426Z,0.00
2022-10-10T04:20:18.393Z,0.00
2022-10-10T04:21:18.448Z,0.00
2022-10-10T04:22:18.377Z,0.00
2022-10-10T04:23:18.347Z,0.00
2022-10-10T04:24:18.373Z,0.00
2022-10-10T04:25:18.340Z,0.00
2022-10-10T04:26:18.329Z,0.00
2022-10-10T04:27:18.312Z,0.00
2022-10-10T04:28:18.402Z,0.00
2022-10-10T04:29:18.289Z,0.00
2022-10-10T04:30:18.286Z,0.00
2022-10-10T04:31:18.263Z,0.00
2022-10-10T04:32:18.267Z,0.00
2022-10-10T04:33:18.346Z,0.00
2022-10-10T04:34:18.245Z,0.00
2022-10-10T04:35:18.227Z,0.00
2022-10-10T04:36:18.223Z,0.00
2022-10-10T04:37:18.207Z,0.00
2022-10-10T04:38:18.239Z,0.00
2022-10-10T04:39:18.189Z,0.00
2022-10-10T04:40:21.547Z,0.00
2022-10-10T04:41:18.167Z,0.00
2022-10-10T04:42:18.151Z,0.00
2022-10-10T04:43:18.146Z,0.00
2022-10-10T04:44:18.153Z,0.00
2022-10-10T04:45:18.118Z,0.00
2022-10-10T04:46:18.120Z,0.00
2022-10-10T04:47:18.101Z,0.00
2022-10-10T04:48:18.116Z,0.00
2022-10-10T04:49:18.086Z,0.00
2022-10-10T04:50:18.071Z,0.00
2022-10-10T04:51:18.057Z,0.00
2022-10-10T04:52:18.056Z,0.00
2022-10-10T04:53:18.051Z,0.00
2022-10-10T04:54:18.035Z,0.00
2022-10-10T04:55:18.014Z,0.00
2022-10-10T04:56:18.038Z,0.00
2022-10-10T04:57:17.997Z,0.00
2022-10-10T04:58:17.984Z,0.00
2022-10-10T04:59:17.968Z,0.00
2022-10-10T05:00:17.984Z,0.00
2022-10-10T05:01:18.151Z,0.00
2022-10-10T05:02:17.949Z,0.00
2022-10-10T05:03:17.928Z,0.00
2022-10-10T05:04:17.947Z,0.00
2022-10-10T05:05:17.913Z,0.00
2022-10-10T05:06:17.891Z,0.00
2022-10-10T05:07:17.889Z,0.00
2022-10-10T05:08:17.887Z,0.00
2022-10-10T05:09:17.886Z,0.00
2022-10-10T05:10:17.855Z,0.00
2022-10-10T05:11:17.861Z,0.00
2022-10-10T05:12:17.845Z,0.00
2022-10-10T05:13:17.840Z,0.00
2022-10-10T05:14:17.837Z,0.00
2022-10-10T05:15:17.793Z,0.00
2022-10-10T05:16:17.775Z,1.00
2022-10-10T05:17:17.818Z,0.00
2022-10-10T05:18:17.772Z,0.00
2022-10-10T05:19:17.753Z,0.00
2022-10-10T05:20:17.756Z,0.00
2022-10-10T05:21:17.699Z,1.00
2022-10-10T05:22:17.741Z,0.00
2022-10-10T05:23:17.660Z,2.00
2022-10-10T05:24:17.661Z,1.00
2022-10-10T05:25:17.644Z,1.00
2022-10-10T05:26:17.639Z,2.00
2022-10-10T05:27:17.617Z,7.00
2022-10-10T05:28:17.659Z,3.00
2022-10-10T05:29:17.591Z,2.00
2022-10-10T05:30:17.597Z,2.00
2022-10-10T05:31:17.583Z,6.00
2022-10-10T05:32:17.592Z,10.00
2022-10-10T05:33:17.568Z,8.00
2022-10-10T05:34:17.566Z,8.00
2022-10-10T05:35:17.532Z,11.00
2022-10-10T05:36:17.533Z,16.00
2022-10-10T05:37:17.521Z,11.00
2022-10-10T05:38:17.532Z,13.00
2022-10-10T05:39:17.480Z,17.00
2022-10-10T05:40:17.494Z,20.00
2022-10-10T05:41:17.489Z,36.00
2022-10-10T05:42:17.463Z,41.00
2022-10-10T05:43:17.446Z,46.00
2022-10-10T05:44:17.460Z,56.00
2022-10-10T05:45:17.429Z,66.00
2022-10-10T05:46:17.422Z,75.00
2022-10-10T05:47:17.394Z,86.00
2022-10-10T05:48:17.405Z,91.00
2022-10-10T05:49:17.397Z,102.00
2022-10-10T05:50:17.388Z,114.00
2022-10-10T05:51:17.373Z,126.00
2022-10-10T05:52:17.359Z,139.00
2022-10-10T05:53:17.338Z,150.00
2022-10-10T05:54:17.336Z,166.00
2022-10-10T05:55:17.313Z,180.00
2022-10-10T05:56:17.330Z,195.00
2022-10-10T05:57:17.307Z,212.00
2022-10-10T05:58:17.286Z,223.00
2022-10-10T05:59:17.270Z,236.00
2022-10-10T06:00:17.267Z,256.00
2022-10-10T06:01:17.270Z,272.00
2022-10-10T06:02:17.360Z,286.00
2022-10-10T06:03:17.284Z,303.00
2022-10-10T06:04:17.244Z,321.00
2022-10-10T06:05:17.212Z,336.00
2022-10-10T06:06:17.209Z,353.00
2022-10-10T06:07:17.213Z,372.00
2022-10-10T06:08:17.185Z,389.00
2022-10-10T06:09:17.171Z,398.00
2022-10-10T06:10:17.181Z,424.00
2022-10-10T06:11:17.140Z,433.00
2022-10-10T06:12:17.175Z,448.00
2022-10-10T06:13:21.584Z,469.00
2022-10-10T06:14:17.134Z,480.00
2022-10-10T06:15:17.111Z,493.00
2022-10-10T06:16:17.107Z,509.00
2022-10-10T06:17:17.096Z,524.00
2022-10-10T06:18:17.074Z,539.00
2022-10-10T06:19:17.082Z,556.00
2022-10-10T06:20:17.049Z,569.00
2022-10-10T06:21:17.052Z,583.00
2022-10-10T06:22:17.031Z,593.00
2022-10-10T06:23:17.155Z,607.00
2022-10-10T06:24:17.015Z,623.00
2022-10-10T06:25:38.447Z,635.00
2022-10-10T06:26:16.996Z,660.00
2022-10-10T06:27:16.984Z,664.00
2022-10-10T06:28:17.093Z,660.00
2022-10-10T06:29:16.959Z,670.00
2022-10-10T06:30:16.945Z,696.00
2022-10-10T06:31:16.950Z,712.00
2022-10-10T06:32:16.922Z,723.00
2022-10-10T06:33:16.925Z,741.00
2022-10-10T06:34:16.896Z,744.00
2022-10-10T06:35:16.905Z,747.00
2022-10-10T06:36:16.913Z,755.00
2022-10-10T06:37:16.877Z,782.00
2022-10-10T06:38:16.860Z,789.00
2022-10-10T06:39:16.852Z,805.00
2022-10-10T06:40:16.838Z,817.00
2022-10-10T06:41:16.838Z,823.00
2022-10-10T06:42:16.829Z,841.00
2022-10-10T06:43:16.806Z,854.00
2022-10-10T06:44:16.797Z,865.00
2022-10-10T06:45:16.784Z,906.00
2022-10-10T06:46:16.780Z,924.00
2022-10-10T06:47:16.792Z,923.00
2022-10-10T06:48:16.763Z,960.00
2022-10-10T06:49:16.756Z,1033.00
2022-10-10T06:50:16.727Z,863.00
2022-10-10T06:51:16.729Z,981.00
2022-10-10T06:52:16.712Z,1013.00
2022-10-10T06:53:16.716Z,1032.00
2022-10-10T06:54:16.684Z,1030.00
2022-10-10T06:55:16.689Z,1045.00
2022-10-10T06:56:16.674Z,1138.00
2022-10-10T06:57:17.486Z,1157.00
2022-10-10T06:58:17.330Z,1171.00
2022-10-10T06:59:16.644Z,1167.00
2022-10-10T07:00:16.734Z,1191.00
2022-10-10T07:01:17.763Z,1254.00
2022-10-10T07:02:16.607Z,1278.00
2022-10-10T07:03:16.600Z,1180.00
2022-10-10T07:04:16.612Z,1386.00
2022-10-10T07:05:16.581Z,815.00
2022-10-10T07:06:16.559Z,1206.00
2022-10-10T07:07:16.576Z,1291.00
2022-10-10T07:08:16.536Z,1308.00
2022-10-10T07:09:16.540Z,1365.00
2022-10-10T07:10:16.870Z,1389.00
2022-10-10T07:11:16.516Z,1528.00
2022-10-10T07:12:16.684Z,1398.00
2022-10-10T07:13:16.610Z,1407.00
2022-10-10T07:14:16.471Z,1558.00
2022-10-10T07:15:16.491Z,1212.00
2022-10-10T07:16:16.576Z,1319.00
2022-10-10T07:17:16.467Z,1403.00
2022-10-10T07:18:17.466Z,1320.00
2022-10-10T07:19:16.647Z,1271.00
2022-10-10T07:20:18.077Z,1346.00
2022-10-10T07:21:16.664Z,1420.00
2022-10-10T07:22:16.394Z,1633.00
2022-10-10T07:23:16.389Z,2020.00
2022-10-10T07:24:17.292Z,1307.00
2022-10-10T07:25:16.409Z,1410.00
2022-10-10T07:26:16.369Z,1471.00
2022-10-10T07:27:16.347Z,1596.00
2022-10-10T07:28:16.350Z,1588.00
2022-10-10T07:29:16.353Z,1629.00
2022-10-10T07:30:16.733Z,1727.00
2022-10-10T07:31:16.313Z,1722.00
2022-10-10T07:32:16.286Z,1625.00
2022-10-10T07:33:16.270Z,1715.00
2022-10-10T07:34:16.256Z,1707.00
2022-10-10T07:35:16.253Z,2082.00
2022-10-10T07:36:16.292Z,1398.00
2022-10-10T07:37:16.239Z,1495.00
2022-10-10T07:38:16.217Z,1828.00
2022-10-10T07:39:17.221Z,1842.00
2022-10-10T07:40:18.428Z,1785.00
2022-10-10T07:41:16.309Z,1728.00
2022-10-10T07:42:16.176Z,1995.00
2022-10-10T07:43:16.177Z,1991.00
2022-10-10T07:44:16.171Z,2032.00
2022-10-10T07:45:16.145Z,2015.00
2022-10-10T07:46:16.137Z,1961.00
2022-10-10T07:47:16.148Z,2074.00
2022-10-10T07:48:16.116Z,2161.00
2022-10-10T07:49:16.115Z,2243.00
2022-10-10T07:50:16.090Z,2054.00
2022-10-10T07:51:16.094Z,2048.00
2022-10-10T07:52:16.090Z,2018.00
2022-10-10T07:53:16.074Z,2267.00
2022-10-10T07:54:16.044Z,2082.00
2022-10-10T07:55:16.936Z,2111.00
2022-10-10T07:56:16.028Z,1940.00
2022-10-10T07:57:16.022Z,2433.00
2022-10-10T07:58:16.096Z,1942.00
2022-10-10T07:59:16.888Z,2103.00
2022-10-10T08:00:16.043Z,1971.00
2022-10-10T08:01:16.027Z,2064.00
2022-10-10T08:02:17.391Z,1826.00
2022-10-10T08:03:16.064Z,1955.00
2022-10-10T08:04:15.980Z,1913.00
2022-10-10T08:05:15.953Z,1911.00
2022-10-10T08:06:15.914Z,2200.00
2022-10-10T08:07:15.920Z,2079.00
2022-10-10T08:08:15.914Z,1988.00
2022-10-10T08:09:15.907Z,2150.00
2022-10-10T08:10:15.879Z,2052.00
2022-10-10T08:11:15.865Z,1886.00
2022-10-10T08:12:16.820Z,2045.00
2022-10-10T08:13:15.883Z,2183.00
2022-10-10T08:14:15.858Z,2352.00
2022-10-10T08:15:15.837Z,1718.00
2022-10-10T08:16:16.196Z,2119.00
2022-10-10T08:17:15.808Z,1960.00
2022-10-10T08:18:15.794Z,2104.00
2022-10-10T08:19:15.782Z,2345.00
2022-10-10T08:20:15.821Z,2246.00
2022-10-10T08:21:15.780Z,2291.00
2022-10-10T08:22:15.787Z,2179.00
2022-10-10T08:23:16.371Z,2310.00
2022-10-10T08:24:15.889Z,2485.00
2022-10-10T08:25:15.731Z,2768.00
2022-10-10T08:26:15.707Z,2776.00
2022-10-10T08:27:15.698Z,2586.00
2022-10-10T08:28:15.736Z,2286.00
2022-10-10T08:29:15.685Z,2477.00
2022-10-10T08:30:15.681Z,2579.00
2022-10-10T08:31:15.664Z,2367.00
2022-10-10T08:32:15.642Z,2396.00
2022-10-10T08:33:15.642Z,2429.00
2022-10-10T08:34:15.622Z,2572.00
2022-10-10T08:35:15.636Z,2459.00
2022-10-10T08:36:15.630Z,2608.00
2022-10-10T08:37:15.622Z,2691.00
2022-10-10T08:38:15.578Z,2696.00
2022-10-10T08:39:15.576Z,2698.00
2022-10-10T08:40:15.594Z,2568.00
2022-10-10T08:41:15.557Z,2731.00
2022-10-10T08:42:15.527Z,3052.00
2022-10-10T08:43:15.521Z,2818.00
2022-10-10T08:44:15.525Z,3000.00
2022-10-10T08:45:15.536Z,2883.00
2022-10-10T08:46:15.512Z,2268.00
2022-10-10T08:47:15.479Z,2157.00
2022-10-10T08:48:15.472Z,2867.00
2022-10-10T08:49:15.473Z,2759.00
2022-10-10T08:50:15.474Z,2825.00
2022-10-10T08:51:15.449Z,2952.00
2022-10-10T08:52:15.427Z,3219.00
2022-10-10T08:53:15.438Z,3151.00
2022-10-10T08:54:15.403Z,3483.00
2022-10-10T08:55:15.397Z,2816.00
2022-10-10T08:56:15.388Z,3162.00
2022-10-10T08:57:15.383Z,2979.00
2022-10-10T08:58:15.388Z,3357.00
2022-10-10T08:59:15.357Z,3170.00
2022-10-10T09:00:16.351Z,3342.00
2022-10-10T09:01:15.370Z,3535.00
2022-10-10T09:02:19.214Z,3750.00
2022-10-10T09:03:15.314Z,2705.00
2022-10-10T09:04:15.308Z,3517.00
2022-10-10T09:05:15.306Z,3751.00
2022-10-10T09:06:15.291Z,3372.00
2022-10-10T09:07:15.269Z,3130.00
2022-10-10T09:08:15.285Z,2727.00
2022-10-10T09:09:15.295Z,3222.00
2022-10-10T09:10:15.245Z,3030.00
2022-10-10T09:11:15.214Z,3344.00
2022-10-10T09:12:15.231Z,2939.00
2022-10-10T09:13:15.222Z,2531.00
2022-10-10T09:14:15.213Z,2031.00
2022-10-10T09:15:15.189Z,2254.00
2022-10-10T09:16:15.267Z,3706.00
2022-10-10T09:17:15.169Z,3769.00
2022-10-10T09:18:15.147Z,3138.00
2022-10-10T09:19:17.588Z,1843.00
2022-10-10T09:20:15.156Z,3664.00
2022-10-10T09:21:15.124Z,3888.00
2022-10-10T09:22:15.095Z,3614.00
2022-10-10T09:23:15.124Z,2284.00
2022-10-10T09:24:15.082Z,3755.00
2022-10-10T09:25:15.086Z,3010.00
2022-10-10T09:26:15.087Z,4020.00
2022-10-10T09:27:15.058Z,4543.00
2022-10-10T09:28:15.113Z,5469.00
2022-10-10T09:29:15.029Z,3615.00
2022-10-10T09:30:15.039Z,4472.00
2022-10-10T09:31:15.014Z,4197.00
2022-10-10T09:32:15.032Z,2853.00
2022-10-10T09:33:14.995Z,4122.00
2022-10-10T09:34:14.966Z,3819.00
2022-10-10T09:35:14.986Z,4832.00
2022-10-10T09:36:14.965Z,4617.00
2022-10-10T09:37:24.278Z,4616.00
2022-10-10T09:38:14.933Z,4987.00
2022-10-10T09:39:14.921Z,5040.00
2022-10-10T09:40:14.926Z,4652.00
2022-10-10T09:41:14.929Z,6732.00
2022-10-10T09:42:14.874Z,6865.00
2022-10-10T09:43:14.883Z,6243.00
2022-10-10T09:44:14.867Z,5995.00
2022-10-10T09:45:14.858Z,7306.00
2022-10-10T09:46:14.861Z,3714.00
2022-10-10T09:47:14.850Z,4636.00
2022-10-10T09:48:14.820Z,5827.00
2022-10-10T09:49:14.819Z,4828.00
2022-10-10T09:50:14.789Z,4534.00
2022-10-10T09:51:14.814Z,5750.00
2022-10-10T09:52:14.811Z,6398.00
2022-10-10T09:53:14.840Z,5223.00
2022-10-10T09:54:14.808Z,4699.00
2022-10-10T09:55:14.746Z,5040.00
2022-10-10T09:56:14.743Z,4427.00
2022-10-10T09:57:14.765Z,5389.00
2022-10-10T09:58:14.711Z,3659.00
2022-10-10T09:59:14.707Z,3966.00
2022-10-10T10:00:14.700Z,4660.00
2022-10-10T10:01:14.735Z,4130.00
2022-10-10T10:02:14.669Z,4348.00
2022-10-10T10:03:14.710Z,4160.00
2022-10-10T10:04:30.139Z,3721.00
2022-10-10T10:05:14.658Z,4415.00
2022-10-10T10:06:14.618Z,3919.00
2022-10-10T10:07:14.633Z,6692.00
2022-10-10T10:08:14.609Z,6102.00
2022-10-10T10:09:14.653Z,6196.00
2022-10-10T10:10:14.582Z,11253.00
2022-10-10T10:11:14.569Z,8884.00
2022-10-10T10:12:14.583Z,3395.00
2022-10-10T10:13:14.562Z,13731.00
2022-10-10T10:14:14.535Z,25624.00
2022-10-10T10:15:14.679Z,27094.00
2022-10-10T10:16:14.534Z,13077.00
2022-10-10T10:17:14.615Z,25360.00
2022-10-10T10:18:14.490Z,21863.00
2022-10-10T10:19:14.480Z,17195.00
2022-10-10T10:20:14.494Z,16249.00
2022-10-10T10:21:14.482Z,13029.00
2022-10-10T10:22:18.480Z,18509.00
2022-10-10T10:23:14.463Z,17778.00
2022-10-10T10:24:14.431Z,14313.00
2022-10-10T10:25:14.525Z,10456.00
2022-10-10T10:26:14.415Z,12595.00
2022-10-10T10:27:14.421Z,13740.00
2022-10-10T10:28:14.441Z,7872.00
2022-10-10T10:29:14.370Z,5595.00
2022-10-10T10:30:14.382Z,2896.00
2022-10-10T10:31:14.361Z,9208.00
2022-10-10T10:32:14.362Z,10326.00
2022-10-10T10:33:14.335Z,2972.00
2022-10-10T10:34:14.349Z,17772.00
2022-10-10T10:35:14.319Z,18554.00
2022-10-10T10:36:14.344Z,23389.00
2022-10-10T10:37:15.130Z,28282.00
2022-10-10T10:38:14.297Z,34237.00
2022-10-10T10:39:14.306Z,25520.00
2022-10-10T10:40:14.384Z,29458.00
2022-10-10T10:41:14.250Z,20091.00
2022-10-10T10:42:14.260Z,28206.00
2022-10-10T10:43:14.234Z,25230.00
2022-10-10T10:44:14.224Z,70535.00
2022-10-10T10:45:14.220Z,37119.00
2022-10-10T10:46:14.216Z,28686.00
2022-10-10T10:47:14.187Z,35870.00
2022-10-10T10:48:14.193Z,30669.00
2022-10-10T10:49:14.168Z,17493.00
2022-10-10T10:50:14.280Z,3204.00
2022-10-10T10:51:14.151Z,13127.00
2022-10-10T10:52:14.137Z,20204.00
2022-10-10T10:53:14.126Z,33409.00
2022-10-10T10:54:14.152Z,29537.00
2022-10-10T10:55:14.104Z,33696.00
2022-10-10T10:56:14.150Z,31047.00
2022-10-10T10:57:31.953Z,18417.00
2022-10-10T11:00:22.000Z,29348.00
2022-10-10T11:01:23.079Z,15208.00
2022-10-10T11:02:26.121Z,20794.00
2022-10-10T11:03:35.175Z,26235.00
2022-10-10T11:05:21.323Z,17465.00
2022-10-10T11:05:39.888Z,23286.00
2022-10-10T11:06:14.088Z,24589.00
2022-10-10T11:07:18.906Z,15855.00
2022-10-10T11:08:13.971Z,11131.00
2022-10-10T11:09:31.053Z,7370.00
2022-10-10T11:10:14.017Z,8274.00
2022-10-10T11:11:13.932Z,5375.00
2022-10-10T11:12:13.955Z,6183.00
2022-10-10T11:13:13.915Z,7862.00
2022-10-10T11:14:13.913Z,14450.00
2022-10-10T11:15:13.942Z,5111.00
2022-10-10T11:16:36.264Z,17061.00
2022-10-10T11:17:13.870Z,6086.00
2022-10-10T11:18:13.868Z,6544.00
2022-10-10T11:19:13.853Z,10509.00
2022-10-10T11:20:13.935Z,7671.00
2022-10-10T11:21:13.825Z,6418.00
2022-10-10T11:22:13.860Z,6146.00
2022-10-10T11:23:13.813Z,6021.00
2022-10-10T11:24:13.794Z,7354.00
2022-10-10T11:25:13.791Z,5447.00
2022-10-10T11:26:13.806Z,7306.00
2022-10-10T11:27:13.758Z,6421.00
2022-10-10T11:28:13.832Z,11595.00
2022-10-10T11:29:13.743Z,7024.00
2022-10-10T11:30:13.756Z,18179.00
2022-10-10T11:31:13.724Z,13955.00
2022-10-10T11:32:13.766Z,10434.00
2022-10-10T11:33:13.712Z,8011.00
2022-10-10T11:34:13.752Z,8504.00
2022-10-10T11:35:13.679Z,6448.00
2022-10-10T11:36:13.673Z,7003.00
2022-10-10T11:37:13.652Z,6481.00
2022-10-10T11:38:13.697Z,6844.00
2022-10-10T11:39:15.609Z,5820.00
2022-10-10T11:40:13.672Z,7302.00
2022-10-10T11:41:13.611Z,5302.00
2022-10-10T11:42:13.621Z,8756.00
2022-10-10T11:43:13.608Z,15304.00
2022-10-10T11:44:13.582Z,10599.00
2022-10-10T11:45:13.566Z,7056.00
2022-10-10T11:46:13.584Z,6839.00
2022-10-10T11:47:13.572Z,8033.00
2022-10-10T11:48:13.557Z,7417.00
2022-10-10T11:49:13.537Z,6728.00
2022-10-10T11:50:13.524Z,6082.00
2022-10-10T11:51:16.259Z,4980.00
2022-10-10T11:52:32.380Z,8579.00
2022-10-10T11:53:13.541Z,11899.00
2022-10-10T11:54:13.485Z,6279.00
2022-10-10T11:55:13.476Z,6981.00
2022-10-10T11:56:13.463Z,5953.00
2022-10-10T11:57:13.461Z,6018.00
2022-10-10T11:58:13.463Z,7015.00
2022-10-10T11:59:13.425Z,6875.00
2022-10-10T12:00:13.443Z,11340.00
2022-10-10T12:01:13.432Z,12562.00
2022-10-10T12:02:13.436Z,7908.00
2022-10-10T12:03:13.391Z,4215.00
2022-10-10T12:04:13.380Z,7535.00
2022-10-10T12:05:13.364Z,11927.00
2022-10-10T12:06:13.368Z,9010.00
2022-10-10T12:07:13.342Z,10248.00
2022-10-10T12:08:17.813Z,7658.00
2022-10-10T12:09:13.322Z,5871.00
2022-10-10T12:10:13.329Z,6164.00
2022-10-10T12:11:13.292Z,5420.00
2022-10-10T12:12:13.287Z,5535.00
2022-10-10T12:13:13.270Z,5863.00
2022-10-10T12:14:13.317Z,5600.00
2022-10-10T12:15:13.266Z,6327.00
2022-10-10T12:16:13.254Z,7620.00
2022-10-10T12:17:13.227Z,6966.00
2022-10-10T12:18:13.233Z,7647.00
2022-10-10T12:19:13.224Z,6954.00
2022-10-10T12:20:13.209Z,7111.00
2022-10-10T12:21:13.214Z,5214.00
2022-10-10T12:22:15.755Z,13396.00
2022-10-10T12:23:13.169Z,9052.00
2022-10-10T12:24:13.170Z,8055.00
2022-10-10T12:25:13.146Z,7957.00
2022-10-10T12:26:13.157Z,7136.00
2022-10-10T12:27:13.144Z,7657.00
2022-10-10T12:28:13.214Z,8679.00
2022-10-10T12:29:13.100Z,17016.00
2022-10-10T12:30:13.111Z,26718.00
2022-10-10T12:31:13.100Z,13199.00
2022-10-10T12:32:13.080Z,10095.00
2022-10-10T12:33:13.058Z,19198.00
2022-10-10T12:34:13.076Z,20919.00
2022-10-10T12:35:13.046Z,17973.00
2022-10-10T12:36:13.067Z,12466.00
2022-10-10T12:37:13.027Z,26160.00
2022-10-10T12:38:13.019Z,25108.00